map of TUI home
TUI - Airport
Location
City:  Turaif, Saudi Arabia
Name:Turaif Airport
ICAO:OETR
IATA:TUI

Details
Type:Airport (Aerodrome, Airfield)
Use:Public/Civil, International (customs port of entry)
Latitude:3141'34"N (31.692778)
Longitude:3843'52"E (38.731111)
Elevation:2803 ft (854 m)
Variation:4.69E (WMM2015 magnetic declination)
0.07 annual change
Runways:1
Longest:9843 × 148 ft (3000 × 45 m), paved

Time
Time Zone:UTC+3
Local Time:

Weather
METAR:OETR 191100Z 11013KT CAVOK 18/12 Q1019

Related Locations
Nearby:
Farthest:RVV: 11770 mi / 18943 km
Raivavae, Tubuai Islands, Austral Islands, PF

Find:

   beyond  
but within

Other Information
Maps:
NOTAMs:
Links:
Sources:

  
  • flag of Saudi Arabia
  

Sectional Chart

Flight Planning
at skyvector.com

Satellite Image

Google Maps Satellite view

 

Copyright © 2004-2018 Karl L. Swartz. All rights reserved.
The Great Circle Mapper name and logo are trademarks of the Great Circle Mapper.
All other trademarks mentioned herein belong to their respective owners.
Please see credits for attibutions and further copyright information.

  Follow gcmap on Facebook Follow gcmap on Twitter Follow gcmap on Google+ GCmap on LinkedIn

hCard Microformat

Geo Microformat